sensor_id;sensor_type;location;lat;lon;timestamp;P1;durP1;ratioP1;P2;durP2;ratioP2
71080;SDS011;58740;50.672;18.690;2023-08-20T00:00:08;20.90;;;16.20;;
71080;SDS011;58740;50.672;18.690;2023-08-20T00:03:08;21.00;;;16.70;;
71080;SDS011;58740;50.672;18.690;2023-08-20T00:05:39;20.00;;;15.80;;
71080;SDS011;58740;50.672;18.690;2023-08-20T00:08:08;23.00;;;17.00;;
71080;SDS011;58740;50.672;18.690;2023-08-20T00:10:36;21.20;;;17.60;;
71080;SDS011;58740;50.672;18.690;2023-08-20T00:13:04;19.60;;;17.40;;
71080;SDS011;58740;50.672;18.690;2023-08-20T00:15:32;20.90;;;16.50;;
71080;SDS011;58740;50.672;18.690;2023-08-20T00:18:00;22.10;;;16.70;;
71080;SDS011;58740;50.672;18.690;2023-08-20T00:20:29;20.60;;;17.40;;
71080;SDS011;58740;50.672;18.690;2023-08-20T00:22:57;23.00;;;17.00;;
71080;SDS011;58740;50.672;18.690;2023-08-20T00:25:25;19.60;;;16.50;;
71080;SDS011;58740;50.672;18.690;2023-08-20T00:27:53;23.50;;;18.20;;
71080;SDS011;58740;50.672;18.690;2023-08-20T00:30:21;23.30;;;17.80;;
71080;SDS011;58740;50.672;18.690;2023-08-20T00:32:50;20.80;;;17.10;;
71080;SDS011;58740;50.672;18.690;2023-08-20T00:35:18;20.60;;;17.80;;
71080;SDS011;58740;50.672;18.690;2023-08-20T00:37:45;19.90;;;16.70;;
71080;SDS011;58740;50.672;18.690;2023-08-20T00:40:13;22.30;;;17.20;;
71080;SDS011;58740;50.672;18.690;2023-08-20T00:42:41;22.00;;;17.30;;
71080;SDS011;58740;50.672;18.690;2023-08-20T00:45:09;22.10;;;17.30;;
71080;SDS011;58740;50.672;18.690;2023-08-20T00:47:38;24.10;;;18.30;;
71080;SDS011;58740;50.672;18.690;2023-08-20T00:50:07;22.80;;;18.20;;
71080;SDS011;58740;50.672;18.690;2023-08-20T00:52:36;23.20;;;18.60;;
71080;SDS011;58740;50.672;18.690;2023-08-20T00:55:09;25.60;;;17.80;;
71080;SDS011;58740;50.672;18.690;2023-08-20T00:57:39;22.90;;;17.20;;
71080;SDS011;58740;50.672;18.690;2023-08-20T01:00:08;20.20;;;15.50;;
71080;SDS011;58740;50.672;18.690;2023-08-20T01:02:39;24.30;;;18.30;;
71080;SDS011;58740;50.672;18.690;2023-08-20T01:05:09;27.80;;;19.40;;
71080;SDS011;58740;50.672;18.690;2023-08-20T01:11:21;24.10;;;18.00;;
71080;SDS011;58740;50.672;18.690;2023-08-20T01:13:58;20.60;;;17.50;;
71080;SDS011;58740;50.672;18.690;2023-08-20T01:16:26;23.30;;;18.30;;
71080;SDS011;58740;50.672;18.690;2023-08-20T01:18:54;22.50;;;19.10;;
71080;SDS011;58740;50.672;18.690;2023-08-20T01:24:16;21.10;;;17.30;;
71080;SDS011;58740;50.672;18.690;2023-08-20T01:27:26;19.50;;;16.40;;
71080;SDS011;58740;50.672;18.690;2023-08-20T01:30:03;17.60;;;15.10;;
71080;SDS011;58740;50.672;18.690;2023-08-20T01:32:32;21.40;;;18.10;;
71080;SDS011;58740;50.672;18.690;2023-08-20T01:35:00;17.90;;;15.10;;
71080;SDS011;58740;50.672;18.690;2023-08-20T01:37:28;20.70;;;16.80;;
71080;SDS011;58740;50.672;18.690;2023-08-20T01:39:56;20.60;;;17.40;;
71080;SDS011;58740;50.672;18.690;2023-08-20T01:42:24;20.90;;;17.10;;
71080;SDS011;58740;50.672;18.690;2023-08-20T01:44:51;22.50;;;18.20;;
71080;SDS011;58740;50.672;18.690;2023-08-20T01:47:19;21.10;;;16.30;;
71080;SDS011;58740;50.672;18.690;2023-08-20T01:49:47;24.10;;;18.10;;
71080;SDS011;58740;50.672;18.690;2023-08-20T01:52:15;26.30;;;17.40;;
71080;SDS011;58740;50.672;18.690;2023-08-20T01:54:42;20.80;;;16.90;;
71080;SDS011;58740;50.672;18.690;2023-08-20T01:57:10;22.60;;;18.60;;
71080;SDS011;58740;50.672;18.690;2023-08-20T01:59:38;23.60;;;18.70;;
71080;SDS011;58740;50.672;18.690;2023-08-20T02:02:06;24.30;;;18.40;;
71080;SDS011;58740;50.672;18.690;2023-08-20T02:04:34;25.40;;;18.90;;
71080;SDS011;58740;50.672;18.690;2023-08-20T02:07:02;23.80;;;18.30;;
71080;SDS011;58740;50.672;18.690;2023-08-20T02:09:30;24.00;;;18.80;;
71080;SDS011;58740;50.672;18.690;2023-08-20T02:11:58;25.40;;;19.60;;
71080;SDS011;58740;50.672;18.690;2023-08-20T02:14:25;26.80;;;19.20;;
71080;SDS011;58740;50.672;18.690;2023-08-20T02:16:55;29.20;;;22.60;;
71080;SDS011;58740;50.672;18.690;2023-08-20T02:19:23;27.80;;;21.10;;
71080;SDS011;58740;50.672;18.690;2023-08-20T02:21:51;27.10;;;20.50;;
71080;SDS011;58740;50.672;18.690;2023-08-20T02:24:20;24.90;;;20.30;;
71080;SDS011;58740;50.672;18.690;2023-08-20T02:26:47;23.90;;;19.50;;
71080;SDS011;58740;50.672;18.690;2023-08-20T02:29:15;26.40;;;19.70;;
71080;SDS011;58740;50.672;18.690;2023-08-20T02:31:43;24.90;;;18.60;;
71080;SDS011;58740;50.672;18.690;2023-08-20T02:34:11;24.50;;;19.80;;
71080;SDS011;58740;50.672;18.690;2023-08-20T02:36:39;24.10;;;19.60;;
71080;SDS011;58740;50.672;18.690;2023-08-20T02:39:06;22.40;;;18.30;;
71080;SDS011;58740;50.672;18.690;2023-08-20T02:41:35;24.30;;;18.50;;
71080;SDS011;58740;50.672;18.690;2023-08-20T02:44:05;25.70;;;19.50;;
71080;SDS011;58740;50.672;18.690;2023-08-20T02:46:33;22.90;;;18.60;;
71080;SDS011;58740;50.672;18.690;2023-08-20T02:49:01;25.50;;;19.00;;
71080;SDS011;58740;50.672;18.690;2023-08-20T02:51:29;24.90;;;19.40;;
71080;SDS011;58740;50.672;18.690;2023-08-20T02:53:57;26.30;;;21.90;;
71080;SDS011;58740;50.672;18.690;2023-08-20T02:56:24;33.30;;;22.10;;
71080;SDS011;58740;50.672;18.690;2023-08-20T02:58:52;28.80;;;21.50;;
71080;SDS011;58740;50.672;18.690;2023-08-20T03:01:21;26.20;;;21.50;;
71080;SDS011;58740;50.672;18.690;2023-08-20T03:03:50;27.70;;;21.40;;
71080;SDS011;58740;50.672;18.690;2023-08-20T03:06:18;26.90;;;20.50;;
71080;SDS011;58740;50.672;18.690;2023-08-20T03:08:46;23.30;;;19.10;;
71080;SDS011;58740;50.672;18.690;2023-08-20T03:11:14;26.00;;;20.00;;
71080;SDS011;58740;50.672;18.690;2023-08-20T03:13:42;21.60;;;18.10;;
71080;SDS011;58740;50.672;18.690;2023-08-20T03:16:09;26.40;;;19.50;;
71080;SDS011;58740;50.672;18.690;2023-08-20T03:18:37;28.40;;;19.90;;
71080;SDS011;58740;50.672;18.690;2023-08-20T03:21:05;24.90;;;20.10;;
71080;SDS011;58740;50.672;18.690;2023-08-20T03:23:33;26.20;;;20.80;;
71080;SDS011;58740;50.672;18.690;2023-08-20T03:26:01;24.60;;;19.40;;
71080;SDS011;58740;50.672;18.690;2023-08-20T03:28:30;25.20;;;19.10;;
71080;SDS011;58740;50.672;18.690;2023-08-20T03:31:01;24.30;;;19.70;;
71080;SDS011;58740;50.672;18.690;2023-08-20T03:33:29;24.50;;;20.70;;
71080;SDS011;58740;50.672;18.690;2023-08-20T03:35:57;24.40;;;20.00;;
71080;SDS011;58740;50.672;18.690;2023-08-20T03:38:27;27.70;;;20.90;;
71080;SDS011;58740;50.672;18.690;2023-08-20T03:40:55;24.80;;;19.90;;
71080;SDS011;58740;50.672;18.690;2023-08-20T03:43:23;22.40;;;18.80;;
71080;SDS011;58740;50.672;18.690;2023-08-20T03:45:52;24.80;;;18.40;;
71080;SDS011;58740;50.672;18.690;2023-08-20T03:48:20;25.50;;;20.70;;
71080;SDS011;58740;50.672;18.690;2023-08-20T03:50:48;23.70;;;19.10;;
71080;SDS011;58740;50.672;18.690;2023-08-20T03:53:16;26.00;;;19.40;;
71080;SDS011;58740;50.672;18.690;2023-08-20T03:55:50;28.40;;;21.60;;
71080;SDS011;58740;50.672;18.690;2023-08-20T03:58:17;30.70;;;21.50;;
71080;SDS011;58740;50.672;18.690;2023-08-20T04:00:45;26.40;;;20.60;;
71080;SDS011;58740;50.672;18.690;2023-08-20T04:03:13;25.10;;;20.10;;
71080;SDS011;58740;50.672;18.690;2023-08-20T04:05:41;27.30;;;21.80;;
71080;SDS011;58740;50.672;18.690;2023-08-20T04:08:09;26.80;;;21.30;;
71080;SDS011;58740;50.672;18.690;2023-08-20T04:10:44;31.40;;;21.30;;
71080;SDS011;58740;50.672;18.690;2023-08-20T04:13:13;27.60;;;21.10;;
71080;SDS011;58740;50.672;18.690;2023-08-20T04:15:41;27.60;;;21.90;;
71080;SDS011;58740;50.672;18.690;2023-08-20T04:18:09;28.90;;;22.20;;
71080;SDS011;58740;50.672;18.690;2023-08-20T04:20:37;28.10;;;22.10;;
71080;SDS011;58740;50.672;18.690;2023-08-20T04:23:05;28.00;;;21.90;;
71080;SDS011;58740;50.672;18.690;2023-08-20T04:25:34;26.80;;;21.80;;
71080;SDS011;58740;50.672;18.690;2023-08-20T04:28:02;29.30;;;22.40;;
71080;SDS011;58740;50.672;18.690;2023-08-20T04:30:30;26.40;;;21.50;;
71080;SDS011;58740;50.672;18.690;2023-08-20T04:32:57;29.10;;;20.80;;
71080;SDS011;58740;50.672;18.690;2023-08-20T04:35:25;27.90;;;21.30;;
71080;SDS011;58740;50.672;18.690;2023-08-20T04:37:53;27.70;;;21.30;;
71080;SDS011;58740;50.672;18.690;2023-08-20T04:40:21;25.30;;;20.90;;
71080;SDS011;58740;50.672;18.690;2023-08-20T04:42:49;28.20;;;22.80;;
71080;SDS011;58740;50.672;18.690;2023-08-20T04:45:17;29.80;;;22.10;;
71080;SDS011;58740;50.672;18.690;2023-08-20T04:47:46;26.70;;;21.90;;
71080;SDS011;58740;50.672;18.690;2023-08-20T04:50:14;24.70;;;19.50;;
71080;SDS011;58740;50.672;18.690;2023-08-20T04:52:45;28.50;;;23.10;;
71080;SDS011;58740;50.672;18.690;2023-08-20T04:55:13;30.10;;;22.00;;
71080;SDS011;58740;50.672;18.690;2023-08-20T04:57:43;28.50;;;22.80;;
71080;SDS011;58740;50.672;18.690;2023-08-20T05:00:11;30.40;;;22.80;;
71080;SDS011;58740;50.672;18.690;2023-08-20T05:02:39;28.90;;;22.50;;
71080;SDS011;58740;50.672;18.690;2023-08-20T05:05:07;29.40;;;23.50;;
71080;SDS011;58740;50.672;18.690;2023-08-20T05:07:35;27.60;;;22.30;;
71080;SDS011;58740;50.672;18.690;2023-08-20T05:10:03;27.60;;;22.90;;
71080;SDS011;58740;50.672;18.690;2023-08-20T05:12:32;29.70;;;22.60;;
71080;SDS011;58740;50.672;18.690;2023-08-20T05:15:00;28.90;;;23.00;;
71080;SDS011;58740;50.672;18.690;2023-08-20T05:17:28;34.30;;;23.40;;
71080;SDS011;58740;50.672;18.690;2023-08-20T05:19:55;32.10;;;25.00;;
71080;SDS011;58740;50.672;18.690;2023-08-20T05:22:23;30.70;;;23.60;;
71080;SDS011;58740;50.672;18.690;2023-08-20T05:24:51;22.90;;;20.10;;
71080;SDS011;58740;50.672;18.690;2023-08-20T05:27:18;29.30;;;23.70;;
71080;SDS011;58740;50.672;18.690;2023-08-20T05:29:46;28.20;;;23.10;;
71080;SDS011;58740;50.672;18.690;2023-08-20T05:32:14;26.00;;;22.80;;
71080;SDS011;58740;50.672;18.690;2023-08-20T05:34:44;30.10;;;23.10;;
71080;SDS011;58740;50.672;18.690;2023-08-20T05:37:12;26.60;;;22.30;;
71080;SDS011;58740;50.672;18.690;2023-08-20T05:39:42;31.80;;;23.60;;
71080;SDS011;58740;50.672;18.690;2023-08-20T05:42:11;29.50;;;23.90;;
71080;SDS011;58740;50.672;18.690;2023-08-20T05:44:39;24.60;;;20.10;;
71080;SDS011;58740;50.672;18.690;2023-08-20T05:47:07;29.40;;;23.80;;
71080;SDS011;58740;50.672;18.690;2023-08-20T05:49:35;32.20;;;24.80;;
71080;SDS011;58740;50.672;18.690;2023-08-20T05:52:03;29.00;;;25.20;;
71080;SDS011;58740;50.672;18.690;2023-08-20T05:54:31;28.80;;;24.80;;
71080;SDS011;58740;50.672;18.690;2023-08-20T05:56:59;31.30;;;25.90;;
71080;SDS011;58740;50.672;18.690;2023-08-20T05:59:26;32.70;;;25.20;;
71080;SDS011;58740;50.672;18.690;2023-08-20T06:01:54;29.30;;;24.10;;
71080;SDS011;58740;50.672;18.690;2023-08-20T06:04:22;29.40;;;25.00;;
71080;SDS011;58740;50.672;18.690;2023-08-20T06:06:50;29.50;;;23.80;;
71080;SDS011;58740;50.672;18.690;2023-08-20T06:09:18;29.40;;;23.40;;
71080;SDS011;58740;50.672;18.690;2023-08-20T06:11:46;28.80;;;23.00;;
71080;SDS011;58740;50.672;18.690;2023-08-20T06:14:15;32.50;;;23.40;;
71080;SDS011;58740;50.672;18.690;2023-08-20T06:16:43;26.80;;;22.80;;
71080;SDS011;58740;50.672;18.690;2023-08-20T06:19:14;28.30;;;23.00;;
71080;SDS011;58740;50.672;18.690;2023-08-20T06:21:42;30.40;;;24.80;;
71080;SDS011;58740;50.672;18.690;2023-08-20T06:24:09;33.70;;;26.30;;
71080;SDS011;58740;50.672;18.690;2023-08-20T06:26:37;32.90;;;26.00;;
71080;SDS011;58740;50.672;18.690;2023-08-20T06:29:05;29.20;;;24.40;;
71080;SDS011;58740;50.672;18.690;2023-08-20T06:31:33;35.50;;;24.90;;
71080;SDS011;58740;50.672;18.690;2023-08-20T06:34:01;29.40;;;24.40;;
71080;SDS011;58740;50.672;18.690;2023-08-20T06:36:29;28.30;;;24.20;;
71080;SDS011;58740;50.672;18.690;2023-08-20T06:38:57;26.50;;;21.30;;
71080;SDS011;58740;50.672;18.690;2023-08-20T06:41:25;29.70;;;23.50;;
71080;SDS011;58740;50.672;18.690;2023-08-20T06:43:53;27.30;;;23.20;;
71080;SDS011;58740;50.672;18.690;2023-08-20T06:46:20;28.50;;;23.70;;
71080;SDS011;58740;50.672;18.690;2023-08-20T06:48:48;29.80;;;24.80;;
71080;SDS011;58740;50.672;18.690;2023-08-20T06:51:19;27.60;;;23.60;;
71080;SDS011;58740;50.672;18.690;2023-08-20T06:53:49;26.50;;;23.70;;
71080;SDS011;58740;50.672;18.690;2023-08-20T06:56:17;25.20;;;22.50;;
71080;SDS011;58740;50.672;18.690;2023-08-20T06:58:46;25.90;;;22.80;;
71080;SDS011;58740;50.672;18.690;2023-08-20T07:01:13;25.90;;;22.70;;
71080;SDS011;58740;50.672;18.690;2023-08-20T07:03:43;27.30;;;23.00;;
71080;SDS011;58740;50.672;18.690;2023-08-20T07:06:12;27.90;;;22.20;;
71080;SDS011;58740;50.672;18.690;2023-08-20T07:08:42;26.50;;;23.60;;
71080;SDS011;58740;50.672;18.690;2023-08-20T07:11:10;26.40;;;22.10;;
71080;SDS011;58740;50.672;18.690;2023-08-20T07:13:38;27.00;;;22.70;;
71080;SDS011;58740;50.672;18.690;2023-08-20T07:16:05;26.10;;;21.60;;
71080;SDS011;58740;50.672;18.690;2023-08-20T07:18:33;26.30;;;21.80;;
71080;SDS011;58740;50.672;18.690;2023-08-20T07:21:01;23.10;;;19.50;;
71080;SDS011;58740;50.672;18.690;2023-08-20T07:23:29;25.80;;;23.00;;
71080;SDS011;58740;50.672;18.690;2023-08-20T07:26:09;27.20;;;21.20;;
71080;SDS011;58740;50.672;18.690;2023-08-20T07:28:40;28.00;;;21.90;;
71080;SDS011;58740;50.672;18.690;2023-08-20T07:31:32;25.80;;;21.10;;
71080;SDS011;58740;50.672;18.690;2023-08-20T07:34:03;24.40;;;21.20;;
71080;SDS011;58740;50.672;18.690;2023-08-20T07:36:33;21.00;;;18.70;;
71080;SDS011;58740;50.672;18.690;2023-08-20T07:39:01;19.80;;;17.70;;
71080;SDS011;58740;50.672;18.690;2023-08-20T07:41:30;23.30;;;18.20;;
71080;SDS011;58740;50.672;18.690;2023-08-20T07:43:58;24.40;;;20.40;;
71080;SDS011;58740;50.672;18.690;2023-08-20T07:46:26;23.00;;;19.10;;
71080;SDS011;58740;50.672;18.690;2023-08-20T07:48:54;24.70;;;19.80;;
71080;SDS011;58740;50.672;18.690;2023-08-20T07:51:22;21.10;;;16.30;;
71080;SDS011;58740;50.672;18.690;2023-08-20T07:53:50;20.80;;;16.70;;
71080;SDS011;58740;50.672;18.690;2023-08-20T07:56:17;19.90;;;17.30;;
71080;SDS011;58740;50.672;18.690;2023-08-20T07:58:45;22.70;;;18.30;;
71080;SDS011;58740;50.672;18.690;2023-08-20T08:01:13;20.10;;;17.60;;
71080;SDS011;58740;50.672;18.690;2023-08-20T08:03:41;20.20;;;17.20;;
71080;SDS011;58740;50.672;18.690;2023-08-20T08:06:09;21.00;;;15.60;;
71080;SDS011;58740;50.672;18.690;2023-08-20T08:08:41;17.70;;;15.50;;
71080;SDS011;58740;50.672;18.690;2023-08-20T08:11:12;17.40;;;15.50;;
71080;SDS011;58740;50.672;18.690;2023-08-20T08:13:39;16.60;;;14.70;;
71080;SDS011;58740;50.672;18.690;2023-08-20T08:16:07;19.30;;;15.20;;
71080;SDS011;58740;50.672;18.690;2023-08-20T08:18:35;18.70;;;15.10;;
71080;SDS011;58740;50.672;18.690;2023-08-20T08:21:03;18.70;;;15.30;;
71080;SDS011;58740;50.672;18.690;2023-08-20T08:23:31;16.90;;;14.70;;
71080;SDS011;58740;50.672;18.690;2023-08-20T08:25:58;13.50;;;12.20;;
71080;SDS011;58740;50.672;18.690;2023-08-20T08:28:27;14.20;;;11.80;;
71080;SDS011;58740;50.672;18.690;2023-08-20T08:30:54;14.80;;;12.20;;
71080;SDS011;58740;50.672;18.690;2023-08-20T08:33:22;14.70;;;12.60;;
71080;SDS011;58740;50.672;18.690;2023-08-20T08:35:51;16.20;;;12.10;;
71080;SDS011;58740;50.672;18.690;2023-08-20T08:38:19;11.90;;;9.00;;
71080;SDS011;58740;50.672;18.690;2023-08-20T08:40:47;11.20;;;8.00;;
71080;SDS011;58740;50.672;18.690;2023-08-20T08:43:16;11.10;;;8.20;;
71080;SDS011;58740;50.672;18.690;2023-08-20T08:45:46;10.10;;;8.70;;
71080;SDS011;58740;50.672;18.690;2023-08-20T08:48:17;11.20;;;8.80;;
71080;SDS011;58740;50.672;18.690;2023-08-20T08:50:48;10.90;;;8.20;;
71080;SDS011;58740;50.672;18.690;2023-08-20T08:53:17;10.90;;;8.40;;
71080;SDS011;58740;50.672;18.690;2023-08-20T08:55:46;10.40;;;8.00;;
71080;SDS011;58740;50.672;18.690;2023-08-20T08:58:14;11.10;;;9.00;;
71080;SDS011;58740;50.672;18.690;2023-08-20T09:00:42;10.20;;;8.60;;
71080;SDS011;58740;50.672;18.690;2023-08-20T09:03:10;11.10;;;8.40;;
71080;SDS011;58740;50.672;18.690;2023-08-20T09:05:57;10.40;;;7.90;;
71080;SDS011;58740;50.672;18.690;2023-08-20T09:08:30;12.90;;;8.70;;
71080;SDS011;58740;50.672;18.690;2023-08-20T09:10:59;10.60;;;8.90;;
71080;SDS011;58740;50.672;18.690;2023-08-20T09:13:39;11.10;;;8.70;;
71080;SDS011;58740;50.672;18.690;2023-08-20T09:16:11;10.60;;;9.20;;
71080;SDS011;58740;50.672;18.690;2023-08-20T09:18:45;10.70;;;9.00;;
71080;SDS011;58740;50.672;18.690;2023-08-20T09:21:13;10.30;;;8.50;;
71080;SDS011;58740;50.672;18.690;2023-08-20T09:23:45;9.20;;;7.70;;
71080;SDS011;58740;50.672;18.690;2023-08-20T09:26:13;9.20;;;8.20;;
71080;SDS011;58740;50.672;18.690;2023-08-20T09:28:46;11.10;;;8.10;;
71080;SDS011;58740;50.672;18.690;2023-08-20T09:31:14;11.10;;;8.90;;
71080;SDS011;58740;50.672;18.690;2023-08-20T09:33:50;9.40;;;7.90;;
71080;SDS011;58740;50.672;18.690;2023-08-20T09:36:29;9.90;;;9.60;;
71080;SDS011;58740;50.672;18.690;2023-08-20T09:38:58;9.70;;;7.80;;
71080;SDS011;58740;50.672;18.690;2023-08-20T09:41:26;9.90;;;8.00;;
71080;SDS011;58740;50.672;18.690;2023-08-20T09:43:57;10.60;;;8.10;;
71080;SDS011;58740;50.672;18.690;2023-08-20T09:46:27;11.10;;;8.90;;
71080;SDS011;58740;50.672;18.690;2023-08-20T09:48:59;10.20;;;8.10;;
71080;SDS011;58740;50.672;18.690;2023-08-20T09:51:28;10.50;;;7.40;;
71080;SDS011;58740;50.672;18.690;2023-08-20T09:54:20;9.90;;;8.50;;
71080;SDS011;58740;50.672;18.690;2023-08-20T09:56:58;13.90;;;8.60;;
71080;SDS011;58740;50.672;18.690;2023-08-20T09:59:29;11.20;;;8.80;;
71080;SDS011;58740;50.672;18.690;2023-08-20T10:01:58;9.50;;;7.80;;
71080;SDS011;58740;50.672;18.690;2023-08-20T10:04:26;12.40;;;9.00;;
71080;SDS011;58740;50.672;18.690;2023-08-20T10:06:54;9.60;;;8.10;;
71080;SDS011;58740;50.672;18.690;2023-08-20T10:09:26;10.20;;;8.60;;
71080;SDS011;58740;50.672;18.690;2023-08-20T10:11:54;11.50;;;9.10;;
71080;SDS011;58740;50.672;18.690;2023-08-20T10:14:22;11.20;;;7.40;;
71080;SDS011;58740;50.672;18.690;2023-08-20T10:16:50;8.80;;;7.70;;
71080;SDS011;58740;50.672;18.690;2023-08-20T10:19:20;9.60;;;7.00;;
71080;SDS011;58740;50.672;18.690;2023-08-20T10:21:53;9.90;;;7.50;;
71080;SDS011;58740;50.672;18.690;2023-08-20T10:24:23;9.70;;;7.70;;
71080;SDS011;58740;50.672;18.690;2023-08-20T10:27:07;10.00;;;7.30;;
71080;SDS011;58740;50.672;18.690;2023-08-20T10:29:38;10.30;;;9.00;;
71080;SDS011;58740;50.672;18.690;2023-08-20T10:34:42;10.30;;;7.70;;
71080;SDS011;58740;50.672;18.690;2023-08-20T10:37:25;11.10;;;7.70;;
71080;SDS011;58740;50.672;18.690;2023-08-20T10:39:56;11.70;;;8.40;;
71080;SDS011;58740;50.672;18.690;2023-08-20T10:42:26;9.70;;;8.20;;
71080;SDS011;58740;50.672;18.690;2023-08-20T10:45:00;10.00;;;8.20;;
71080;SDS011;58740;50.672;18.690;2023-08-20T10:47:47;10.40;;;8.10;;
71080;SDS011;58740;50.672;18.690;2023-08-20T10:50:19;10.50;;;8.50;;
71080;SDS011;58740;50.672;18.690;2023-08-20T10:52:55;10.60;;;9.00;;
71080;SDS011;58740;50.672;18.690;2023-08-20T10:55:24;10.10;;;7.60;;
71080;SDS011;58740;50.672;18.690;2023-08-20T10:57:58;11.10;;;8.80;;
71080;SDS011;58740;50.672;18.690;2023-08-20T11:00:27;10.20;;;8.60;;
71080;SDS011;58740;50.672;18.690;2023-08-20T11:02:58;11.00;;;9.00;;
71080;SDS011;58740;50.672;18.690;2023-08-20T11:05:27;10.20;;;8.60;;
71080;SDS011;58740;50.672;18.690;2023-08-20T11:07:56;10.90;;;8.50;;
71080;SDS011;58740;50.672;18.690;2023-08-20T11:10:25;10.80;;;8.20;;
71080;SDS011;58740;50.672;18.690;2023-08-20T11:12:53;10.30;;;8.50;;
71080;SDS011;58740;50.672;18.690;2023-08-20T11:15:21;9.20;;;7.80;;
71080;SDS011;58740;50.672;18.690;2023-08-20T11:17:49;9.90;;;8.80;;
71080;SDS011;58740;50.672;18.690;2023-08-20T11:20:18;9.90;;;8.50;;
71080;SDS011;58740;50.672;18.690;2023-08-20T11:22:47;10.10;;;7.80;;
71080;SDS011;58740;50.672;18.690;2023-08-20T11:25:15;9.50;;;6.30;;
71080;SDS011;58740;50.672;18.690;2023-08-20T11:27:43;11.30;;;7.70;;
71080;SDS011;58740;50.672;18.690;2023-08-20T11:30:11;9.90;;;8.20;;
71080;SDS011;58740;50.672;18.690;2023-08-20T11:32:41;10.50;;;8.00;;
71080;SDS011;58740;50.672;18.690;2023-08-20T11:35:10;10.10;;;8.70;;
71080;SDS011;58740;50.672;18.690;2023-08-20T11:37:40;10.30;;;8.20;;
71080;SDS011;58740;50.672;18.690;2023-08-20T11:40:08;11.10;;;7.30;;
71080;SDS011;58740;50.672;18.690;2023-08-20T11:42:36;12.40;;;8.80;;
71080;SDS011;58740;50.672;18.690;2023-08-20T11:45:04;11.30;;;7.50;;
71080;SDS011;58740;50.672;18.690;2023-08-20T11:47:40;8.90;;;7.40;;
71080;SDS011;58740;50.672;18.690;2023-08-20T11:50:09;12.10;;;8.40;;
71080;SDS011;58740;50.672;18.690;2023-08-20T11:52:38;11.20;;;7.80;;
71080;SDS011;58740;50.672;18.690;2023-08-20T11:55:10;11.80;;;7.80;;
71080;SDS011;58740;50.672;18.690;2023-08-20T11:57:38;9.70;;;8.10;;
71080;SDS011;58740;50.672;18.690;2023-08-20T12:00:06;9.20;;;7.90;;
71080;SDS011;58740;50.672;18.690;2023-08-20T12:02:43;10.00;;;7.80;;
71080;SDS011;58740;50.672;18.690;2023-08-20T12:05:11;8.80;;;7.40;;
71080;SDS011;58740;50.672;18.690;2023-08-20T12:07:39;8.60;;;7.70;;
71080;SDS011;58740;50.672;18.690;2023-08-20T12:10:20;8.10;;;6.60;;
71080;SDS011;58740;50.672;18.690;2023-08-20T12:12:49;12.70;;;8.00;;
71080;SDS011;58740;50.672;18.690;2023-08-20T12:15:18;12.50;;;8.60;;
71080;SDS011;58740;50.672;18.690;2023-08-20T12:17:56;9.90;;;8.20;;
71080;SDS011;58740;50.672;18.690;2023-08-20T12:20:27;10.90;;;8.20;;
71080;SDS011;58740;50.672;18.690;2023-08-20T12:23:01;10.70;;;8.50;;
71080;SDS011;58740;50.672;18.690;2023-08-20T12:25:33;11.20;;;8.10;;
71080;SDS011;58740;50.672;18.690;2023-08-20T12:28:04;11.50;;;6.80;;
71080;SDS011;58740;50.672;18.690;2023-08-20T12:30:33;9.10;;;7.50;;
71080;SDS011;58740;50.672;18.690;2023-08-20T12:33:06;9.80;;;7.80;;
71080;SDS011;58740;50.672;18.690;2023-08-20T12:35:35;10.10;;;8.20;;
71080;SDS011;58740;50.672;18.690;2023-08-20T12:38:03;10.40;;;8.00;;
71080;SDS011;58740;50.672;18.690;2023-08-20T12:40:31;10.60;;;7.50;;
71080;SDS011;58740;50.672;18.690;2023-08-20T12:42:59;9.10;;;7.90;;
71080;SDS011;58740;50.672;18.690;2023-08-20T12:45:27;12.30;;;9.10;;
71080;SDS011;58740;50.672;18.690;2023-08-20T12:47:55;10.10;;;7.60;;
71080;SDS011;58740;50.672;18.690;2023-08-20T12:50:27;9.70;;;7.50;;
71080;SDS011;58740;50.672;18.690;2023-08-20T12:52:54;10.70;;;7.70;;
71080;SDS011;58740;50.672;18.690;2023-08-20T12:55:22;10.00;;;8.50;;
71080;SDS011;58740;50.672;18.690;2023-08-20T12:57:55;9.10;;;7.60;;
71080;SDS011;58740;50.672;18.690;2023-08-20T13:00:26;9.30;;;7.60;;
71080;SDS011;58740;50.672;18.690;2023-08-20T13:02:54;10.50;;;7.70;;
71080;SDS011;58740;50.672;18.690;2023-08-20T13:05:24;10.30;;;8.10;;
71080;SDS011;58740;50.672;18.690;2023-08-20T13:07:53;9.90;;;7.70;;
71080;SDS011;58740;50.672;18.690;2023-08-20T13:10:21;8.50;;;7.50;;
71080;SDS011;58740;50.672;18.690;2023-08-20T13:12:51;9.50;;;7.30;;
71080;SDS011;58740;50.672;18.690;2023-08-20T13:15:22;9.90;;;7.40;;
71080;SDS011;58740;50.672;18.690;2023-08-20T13:17:51;9.90;;;7.50;;
71080;SDS011;58740;50.672;18.690;2023-08-20T13:20:19;8.60;;;6.90;;
71080;SDS011;58740;50.672;18.690;2023-08-20T13:22:52;10.40;;;7.90;;
71080;SDS011;58740;50.672;18.690;2023-08-20T13:25:20;10.80;;;7.50;;
71080;SDS011;58740;50.672;18.690;2023-08-20T13:27:51;9.10;;;7.30;;
71080;SDS011;58740;50.672;18.690;2023-08-20T13:30:19;11.10;;;7.60;;
71080;SDS011;58740;50.672;18.690;2023-08-20T13:32:47;9.90;;;7.40;;
71080;SDS011;58740;50.672;18.690;2023-08-20T13:35:15;9.90;;;7.60;;
71080;SDS011;58740;50.672;18.690;2023-08-20T13:37:43;9.50;;;7.70;;
71080;SDS011;58740;50.672;18.690;2023-08-20T13:40:11;10.30;;;7.80;;
71080;SDS011;58740;50.672;18.690;2023-08-20T13:42:39;9.30;;;7.00;;
71080;SDS011;58740;50.672;18.690;2023-08-20T13:45:07;8.90;;;7.50;;
71080;SDS011;58740;50.672;18.690;2023-08-20T13:47:35;10.50;;;8.00;;
71080;SDS011;58740;50.672;18.690;2023-08-20T13:50:03;9.00;;;7.20;;
71080;SDS011;58740;50.672;18.690;2023-08-20T13:52:32;9.10;;;7.10;;
71080;SDS011;58740;50.672;18.690;2023-08-20T13:55:00;8.70;;;7.20;;
71080;SDS011;58740;50.672;18.690;2023-08-20T13:57:28;9.10;;;6.80;;
71080;SDS011;58740;50.672;18.690;2023-08-20T13:59:56;17.20;;;7.20;;
71080;SDS011;58740;50.672;18.690;2023-08-20T14:02:25;10.50;;;7.50;;
71080;SDS011;58740;50.672;18.690;2023-08-20T14:04:52;9.00;;;7.40;;
71080;SDS011;58740;50.672;18.690;2023-08-20T14:07:20;7.90;;;6.10;;
71080;SDS011;58740;50.672;18.690;2023-08-20T14:09:48;9.70;;;7.40;;
71080;SDS011;58740;50.672;18.690;2023-08-20T14:12:16;10.40;;;7.40;;
71080;SDS011;58740;50.672;18.690;2023-08-20T14:14:44;9.40;;;6.90;;
71080;SDS011;58740;50.672;18.690;2023-08-20T14:17:12;10.20;;;7.30;;
71080;SDS011;58740;50.672;18.690;2023-08-20T14:19:40;9.20;;;7.60;;
71080;SDS011;58740;50.672;18.690;2023-08-20T14:22:07;8.20;;;6.70;;
71080;SDS011;58740;50.672;18.690;2023-08-20T14:24:35;9.10;;;6.50;;
71080;SDS011;58740;50.672;18.690;2023-08-20T14:27:03;8.30;;;6.60;;
71080;SDS011;58740;50.672;18.690;2023-08-20T14:29:31;9.80;;;7.10;;
71080;SDS011;58740;50.672;18.690;2023-08-20T14:31:58;8.80;;;6.70;;
71080;SDS011;58740;50.672;18.690;2023-08-20T14:34:26;9.10;;;6.50;;
71080;SDS011;58740;50.672;18.690;2023-08-20T14:36:54;8.80;;;6.90;;